createdAt,value
2022-08-20T00:02:06.108Z,99196.28
2022-08-20T00:05:11.227Z,99225.94
2022-08-20T00:08:16.215Z,99214.66
2022-08-20T00:11:25.422Z,99226.00
2022-08-20T00:14:29.956Z,99217.69
2022-08-20T00:17:38.477Z,99208.31
2022-08-20T00:20:46.750Z,99229.06
2022-08-20T00:23:53.230Z,99221.78
2022-08-20T00:26:58.035Z,99189.25
2022-08-20T00:30:02.875Z,99200.63
2022-08-20T00:33:11.264Z,99207.56
2022-08-20T00:36:18.355Z,99214.63
2022-08-20T00:39:23.042Z,99202.66
2022-08-20T00:42:27.899Z,99199.22
2022-08-20T00:45:34.387Z,99203.97
2022-08-20T00:48:41.813Z,99210.41
2022-08-20T00:51:58.497Z,99206.72
2022-08-20T00:55:05.415Z,99201.59
2022-08-20T00:58:10.853Z,99185.91
2022-08-20T01:01:16.730Z,99200.03
2022-08-20T01:04:21.775Z,99177.25
2022-08-20T01:07:35.835Z,99205.66
2022-08-20T01:10:42.850Z,99199.94
2022-08-20T01:13:47.973Z,99202.59
2022-08-20T01:16:55.582Z,99190.34
2022-08-20T01:20:08.433Z,99184.06
2022-08-20T01:23:28.850Z,99179.75
2022-08-20T01:26:40.574Z,99183.28
2022-08-20T01:29:45.884Z,99170.78
2022-08-20T01:32:50.411Z,99144.34
2022-08-20T01:35:56.169Z,99151.56
2022-08-20T01:39:01.815Z,99152.00
2022-08-20T01:42:20.568Z,99134.25
2022-08-20T01:45:27.665Z,99136.56
2022-08-20T01:48:32.972Z,99125.69
2022-08-20T01:51:37.280Z,99144.41
2022-08-20T01:54:42.932Z,99131.88
2022-08-20T01:57:49.342Z,99151.66
2022-08-20T02:00:53.917Z,99141.59
2022-08-20T02:03:58.972Z,99130.47
2022-08-20T02:07:05.142Z,99156.81
2022-08-20T02:10:13.740Z,99164.84
2022-08-20T02:13:18.729Z,99155.50
2022-08-20T02:16:55.160Z,99153.25
2022-08-20T02:20:08.612Z,99142.13
2022-08-20T02:23:13.969Z,99153.00
2022-08-20T02:26:20.084Z,99123.53
2022-08-20T02:29:24.969Z,99148.94
2022-08-20T02:32:34.133Z,99146.50
2022-08-20T02:35:40.910Z,99130.31
2022-08-20T02:38:46.026Z,99121.06
2022-08-20T02:41:51.167Z,99124.78
2022-08-20T02:44:55.864Z,99104.81
2022-08-20T02:48:00.605Z,99114.44
2022-08-20T02:51:07.646Z,99113.25
2022-08-20T02:54:12.551Z,99102.06
2022-08-20T02:57:21.264Z,99097.00
2022-08-20T03:00:26.314Z,99102.66
2022-08-20T03:03:30.535Z,99107.94
2022-08-20T03:06:35.335Z,99113.09
2022-08-20T03:09:40.783Z,99096.34
2022-08-20T03:12:47.580Z,99094.91
2022-08-20T03:15:59.324Z,99095.91
2022-08-20T03:19:03.769Z,99096.72
2022-08-20T03:22:08.180Z,99078.44
2022-08-20T03:25:13.266Z,99089.59
2022-08-20T03:28:18.779Z,99083.72
2022-08-20T03:31:23.477Z,99078.25
2022-08-20T03:34:28.220Z,99062.75
2022-08-20T03:37:34.767Z,99065.72
2022-08-20T03:40:40.805Z,99066.81
2022-08-20T03:43:45.626Z,99056.47
2022-08-20T03:46:50.268Z,99035.00
2022-08-20T03:50:02.580Z,99057.03
2022-08-20T03:53:07.366Z,99033.41
2022-08-20T03:56:18.336Z,99041.69
2022-08-20T03:59:22.911Z,99020.47
2022-08-20T04:02:29.189Z,99019.31
2022-08-20T04:05:35.241Z,99013.91
2022-08-20T04:08:42.698Z,99030.66
2022-08-20T04:11:47.518Z,99024.69
2022-08-20T04:14:53.348Z,99001.50
2022-08-20T04:17:58.399Z,98999.69
2022-08-20T04:21:03.127Z,99018.16
2022-08-20T04:24:07.695Z,99014.28
2022-08-20T04:27:29.668Z,99013.94
2022-08-20T04:30:34.217Z,99021.75
2022-08-20T04:33:38.766Z,99003.13
2022-08-20T04:36:43.317Z,98999.84
2022-08-20T04:40:07.762Z,99005.38
2022-08-20T04:43:14.472Z,98991.50
2022-08-20T04:46:19.202Z,99000.84
2022-08-20T04:49:27.062Z,99000.28
2022-08-20T04:52:33.771Z,98970.97
2022-08-20T04:55:42.664Z,98974.03
2022-08-20T04:58:49.659Z,98953.78
2022-08-20T05:01:54.215Z,98959.47
2022-08-20T05:04:58.867Z,98969.09
2022-08-20T05:08:04.317Z,98955.03
2022-08-20T05:11:33.208Z,98946.28
2022-08-20T05:14:37.388Z,98952.38
2022-08-20T05:17:43.814Z,98977.22
2022-08-20T05:20:49.801Z,98962.91
2022-08-20T05:23:54.349Z,98960.00
2022-08-20T05:27:00.715Z,98959.66
2022-08-20T05:30:13.561Z,98982.38
2022-08-20T05:33:23.867Z,98974.75
2022-08-20T05:36:28.382Z,98949.44
2022-08-20T05:39:37.223Z,98973.69
2022-08-20T05:42:44.247Z,98971.56
2022-08-20T05:45:56.524Z,98957.78
2022-08-20T05:49:04.893Z,98973.16
2022-08-20T05:52:09.623Z,98963.75
2022-08-20T05:55:15.652Z,98946.75
2022-08-20T05:58:30.125Z,98945.31
2022-08-20T06:01:36.931Z,98955.63
2022-08-20T06:04:41.951Z,98955.84
2022-08-20T06:07:46.779Z,98978.06
2022-08-20T06:10:51.922Z,98971.03
2022-08-20T06:13:56.851Z,98983.31
2022-08-20T06:17:15.385Z,98974.75
2022-08-20T06:20:20.150Z,98958.72
2022-08-20T06:23:26.222Z,98952.50
2022-08-20T06:26:31.424Z,98936.00
2022-08-20T06:29:37.543Z,98951.19
2022-08-20T06:32:42.379Z,98941.22
2022-08-20T06:35:47.252Z,98894.50
2022-08-20T06:38:51.896Z,98933.50
2022-08-20T06:41:59.530Z,98922.75
2022-08-20T06:45:07.684Z,98943.09
2022-08-20T06:48:15.173Z,98953.41
2022-08-20T06:51:21.431Z,98920.13
2022-08-20T06:54:28.684Z,98965.28
2022-08-20T06:57:34.148Z,98940.59
2022-08-20T07:00:41.507Z,98983.78
2022-08-20T07:03:54.608Z,98978.41
2022-08-20T07:07:01.378Z,98948.97
2022-08-20T07:10:12.053Z,98951.69
2022-08-20T07:13:17.321Z,98932.38
2022-08-20T07:16:21.807Z,98921.16
2022-08-20T07:19:26.856Z,98933.59
2022-08-20T07:22:31.348Z,98945.00
2022-08-20T07:25:36.094Z,98946.94
2022-08-20T07:28:40.781Z,98941.25
2022-08-20T07:32:04.399Z,98957.31
2022-08-20T07:35:13.199Z,98963.09
2022-08-20T07:38:25.699Z,98963.84
2022-08-20T07:41:30.166Z,98972.19
2022-08-20T07:44:34.745Z,98941.38
2022-08-20T07:47:41.355Z,98978.94
2022-08-20T07:50:46.311Z,98965.53
2022-08-20T07:53:54.898Z,98945.88
2022-08-20T07:57:04.270Z,98971.63
2022-08-20T08:00:11.439Z,98976.91
2022-08-20T08:03:15.999Z,98954.97
2022-08-20T08:06:29.990Z,98958.53
2022-08-20T08:09:36.675Z,98972.22
2022-08-20T08:12:49.488Z,98982.47
2022-08-20T08:16:02.663Z,98992.84
2022-08-20T08:19:10.625Z,98991.97
2022-08-20T08:22:19.092Z,98996.53
2022-08-20T08:25:23.770Z,98967.38
2022-08-20T08:28:31.893Z,98981.03
2022-08-20T08:31:36.615Z,98981.16
2022-08-20T08:34:41.263Z,98973.06
2022-08-20T08:37:45.813Z,99004.41
2022-08-20T08:40:57.594Z,99009.28
2022-08-20T08:44:13.840Z,98997.34
2022-08-20T08:47:30.306Z,98998.50
2022-08-20T08:50:53.464Z,99004.91
2022-08-20T08:54:04.590Z,98922.31
2022-08-20T08:57:12.038Z,99016.97
2022-08-20T09:00:20.144Z,99014.97
2022-08-20T09:03:38.289Z,99005.06
2022-08-20T09:06:44.402Z,99012.16
2022-08-20T09:09:49.284Z,99020.38
2022-08-20T09:12:54.770Z,98995.97
2022-08-20T09:15:59.676Z,99011.88
2022-08-20T09:19:05.355Z,99035.72
2022-08-20T09:22:16.517Z,99043.53
2022-08-20T09:25:21.273Z,99026.03
2022-08-20T09:28:26.037Z,99034.84
2022-08-20T09:31:38.263Z,99044.34
2022-08-20T09:34:46.244Z,99021.13
2022-08-20T09:37:52.919Z,99044.78
2022-08-20T09:41:01.813Z,99040.38
2022-08-20T09:44:06.632Z,99031.13
2022-08-20T09:47:16.183Z,99030.66
2022-08-20T09:50:20.985Z,99036.81
2022-08-20T09:53:29.916Z,99047.06
2022-08-20T09:56:36.966Z,99053.41
2022-08-20T09:59:41.900Z,99047.78
2022-08-20T10:02:47.183Z,99064.28
2022-08-20T10:05:51.911Z,99063.63
2022-08-20T10:08:56.483Z,99080.50
2022-08-20T10:12:01.093Z,99077.63
2022-08-20T10:15:06.320Z,99086.50
2022-08-20T10:18:12.201Z,99107.09
2022-08-20T10:21:16.856Z,99113.84
2022-08-20T10:24:22.720Z,99119.69
2022-08-20T10:27:27.230Z,99117.38
2022-08-20T10:30:31.951Z,99112.31
2022-08-20T10:33:37.945Z,99157.09
2022-08-20T10:36:44.357Z,99158.09
2022-08-20T10:39:49.219Z,99171.00
2022-08-20T10:42:53.802Z,99194.44
2022-08-20T10:45:58.567Z,99207.75
2022-08-20T10:49:03.503Z,99234.63
2022-08-20T10:52:08.149Z,99238.78
2022-08-20T10:55:13.553Z,99215.88
2022-08-20T10:58:18.188Z,99203.13
2022-08-20T11:01:31.469Z,99198.66
2022-08-20T11:04:38.735Z,99219.31
2022-08-20T11:07:55.512Z,99234.25
2022-08-20T11:11:01.075Z,99235.34
2022-08-20T11:14:05.816Z,99239.28
2022-08-20T11:17:11.220Z,99250.72
2022-08-20T11:20:19.074Z,99300.50
2022-08-20T11:23:24.758Z,99297.16
2022-08-20T11:26:29.656Z,99294.97
2022-08-20T11:29:34.494Z,99299.34
2022-08-20T11:32:39.320Z,99269.06
2022-08-20T11:35:48.909Z,99264.94
2022-08-20T11:38:54.839Z,99278.75
2022-08-20T11:41:59.458Z,99254.34
2022-08-20T11:45:03.919Z,99246.97
2022-08-20T11:48:08.550Z,99258.53
2022-08-20T11:51:13.523Z,99264.31
2022-08-20T11:54:18.092Z,99245.03
2022-08-20T11:57:31.967Z,99275.06
2022-08-20T12:00:39.211Z,99276.59
2022-08-20T12:03:43.801Z,99313.34
2022-08-20T12:06:49.043Z,99327.94
2022-08-20T12:09:54.508Z,99352.56
2022-08-20T12:12:59.847Z,99348.06
2022-08-20T12:16:07.047Z,99336.50
2022-08-20T12:19:11.767Z,99282.69
2022-08-20T12:22:23.767Z,99317.09
2022-08-20T12:25:30.296Z,99278.97
2022-08-20T12:28:35.354Z,99349.88
2022-08-20T12:31:39.749Z,99353.19
2022-08-20T12:34:45.552Z,99357.03
2022-08-20T12:37:50.184Z,99374.06
2022-08-20T12:40:54.922Z,99394.75
2022-08-20T12:43:59.457Z,99357.31
2022-08-20T12:47:26.271Z,99392.22
2022-08-20T12:50:31.988Z,99372.19
2022-08-20T12:53:40.753Z,99340.03
2022-08-20T12:56:45.363Z,99378.97
2022-08-20T12:59:50.036Z,99380.25
2022-08-20T13:03:01.172Z,99355.03
2022-08-20T13:06:06.666Z,99364.34
2022-08-20T13:09:11.793Z,99360.34
2022-08-20T13:12:16.751Z,99347.41
2022-08-20T13:15:22.392Z,99359.75
2022-08-20T13:18:26.835Z,99359.47
2022-08-20T13:21:31.478Z,99330.94
2022-08-20T13:24:36.399Z,99323.38
2022-08-20T13:27:45.057Z,99349.53
2022-08-20T13:30:49.778Z,99331.41
2022-08-20T13:33:54.772Z,99216.88
2022-08-20T13:36:59.552Z,99365.66
2022-08-20T13:40:05.627Z,99342.22
2022-08-20T13:43:11.915Z,99346.28
2022-08-20T13:46:16.711Z,99336.81
2022-08-20T13:49:21.371Z,99335.84
2022-08-20T13:52:27.531Z,99346.38
2022-08-20T13:55:32.444Z,99336.16
2022-08-20T13:58:38.299Z,99338.00
2022-08-20T14:01:42.917Z,99333.72
2022-08-20T14:04:49.443Z,99325.09
2022-08-20T14:07:54.274Z,99305.28
2022-08-20T14:10:59.199Z,99329.31
2022-08-20T14:14:04.034Z,99324.56
2022-08-20T14:17:25.496Z,99311.66
2022-08-20T14:20:32.742Z,99345.44
2022-08-20T14:23:37.477Z,99324.63
2022-08-20T14:26:42.121Z,99326.16
2022-08-20T14:29:48.295Z,99330.56
2022-08-20T14:32:53.736Z,99322.84
2022-08-20T14:35:58.025Z,99333.03
2022-08-20T14:39:02.559Z,99333.97
2022-08-20T14:42:07.428Z,99320.16
2022-08-20T14:45:14.886Z,99335.63
2022-08-20T14:48:19.800Z,99324.94
2022-08-20T14:51:24.428Z,99334.56
2022-08-20T14:54:29.370Z,99341.72
2022-08-20T14:57:34.604Z,99328.53
2022-08-20T15:00:39.777Z,99312.88
2022-08-20T15:03:44.593Z,99328.84
2022-08-20T15:06:49.661Z,99338.00
2022-08-20T15:09:55.221Z,99331.22
2022-08-20T15:13:00.407Z,99307.00
2022-08-20T15:16:05.327Z,99325.50
2022-08-20T15:19:10.001Z,99327.19
2022-08-20T15:22:14.720Z,99296.59
2022-08-20T15:25:21.896Z,99335.97
2022-08-20T15:28:26.492Z,99320.91
2022-08-20T15:31:31.073Z,99341.25
2022-08-20T15:34:40.386Z,99334.66
2022-08-20T15:37:49.732Z,99335.25
2022-08-20T15:40:54.412Z,99321.38
2022-08-20T15:43:59.224Z,99284.50
2022-08-20T15:47:25.826Z,99323.88
2022-08-20T15:50:48.994Z,99325.97
2022-08-20T15:53:59.641Z,99329.31
2022-08-20T15:57:23.642Z,99334.75
2022-08-20T16:00:40.411Z,99343.31
2022-08-20T16:04:08.775Z,99339.78
2022-08-20T16:07:23.982Z,99329.19
2022-08-20T16:11:01.483Z,99333.50
2022-08-20T16:14:20.940Z,99343.81
2022-08-20T16:17:43.610Z,99352.59
2022-08-20T16:20:52.920Z,99346.69
2022-08-20T16:23:58.756Z,99349.94
2022-08-20T16:27:05.704Z,99353.00
2022-08-20T16:30:38.562Z,99330.91
2022-08-20T16:34:32.249Z,99359.66
2022-08-20T16:37:49.202Z,99338.47
2022-08-20T16:40:58.289Z,99367.41
2022-08-20T16:44:05.298Z,99365.88
2022-08-20T16:47:19.402Z,99352.41
2022-08-20T16:50:30.198Z,99363.66
2022-08-20T16:53:35.025Z,99359.38
2022-08-20T16:56:43.039Z,99369.38
2022-08-20T17:00:13.989Z,99378.75
2022-08-20T17:03:40.301Z,99380.91
2022-08-20T17:06:49.032Z,99374.72
2022-08-20T17:10:09.608Z,99358.75
2022-08-20T17:13:17.612Z,99382.63
2022-08-20T17:16:23.901Z,99360.38
2022-08-20T17:19:31.361Z,99386.13
2022-08-20T17:22:43.463Z,99313.25
2022-08-20T17:25:59.152Z,99356.94
2022-08-20T17:29:12.125Z,99383.34
2022-08-20T17:32:36.908Z,99365.09
2022-08-20T17:35:49.701Z,99372.41
2022-08-20T17:38:58.914Z,99382.81
2022-08-20T17:42:11.190Z,99387.69
2022-08-20T17:45:28.920Z,99381.72
2022-08-20T17:48:46.997Z,99371.16
2022-08-20T17:51:56.075Z,99381.94
2022-08-20T17:55:03.350Z,99380.34
2022-08-20T17:58:15.674Z,99358.94
2022-08-20T18:01:22.446Z,99356.69
2022-08-20T18:04:27.635Z,99366.44
2022-08-20T18:07:47.444Z,99380.22
2022-08-20T18:11:00.938Z,99381.53
2022-08-20T18:14:27.488Z,99385.91
2022-08-20T18:17:52.975Z,99383.78
2022-08-20T18:21:12.663Z,99380.38
2022-08-20T18:24:23.910Z,99358.53
2022-08-20T18:27:44.050Z,99380.41
2022-08-20T18:30:54.686Z,99364.44
2022-08-20T18:34:19.517Z,99385.13
2022-08-20T18:37:28.629Z,99383.03
2022-08-20T18:40:34.957Z,99364.16
2022-08-20T18:43:40.791Z,99392.22
2022-08-20T18:46:59.230Z,99384.19
2022-08-20T18:50:16.380Z,99372.34
2022-08-20T18:53:34.446Z,99356.81
2022-08-20T18:56:44.063Z,99371.38
2022-08-20T19:00:19.329Z,99365.69
2022-08-20T19:03:48.622Z,99357.16
2022-08-20T19:06:58.897Z,99351.25
2022-08-20T19:10:28.411Z,99359.97
2022-08-20T19:13:53.125Z,99358.31
2022-08-20T19:17:32.782Z,99373.19
2022-08-20T19:20:42.351Z,99380.16
2022-08-20T19:23:54.824Z,99373.94
2022-08-20T19:27:06.400Z,99359.34
2022-08-20T19:30:12.026Z,99381.97
2022-08-20T19:33:26.656Z,99381.38
2022-08-20T19:36:35.640Z,99376.97
2022-08-20T19:39:40.615Z,99394.84
2022-08-20T19:42:45.545Z,99397.03
2022-08-20T19:45:53.324Z,99381.41
2022-08-20T19:49:19.152Z,99404.41
2022-08-20T19:52:39.671Z,99389.16
2022-08-20T19:55:44.647Z,99403.78
2022-08-20T19:59:11.590Z,99408.16
2022-08-20T20:02:20.670Z,99403.59
2022-08-20T20:05:26.890Z,99420.19
2022-08-20T20:08:51.323Z,99439.00
2022-08-20T20:11:58.057Z,99452.19
2022-08-20T20:15:03.297Z,99446.72
2022-08-20T20:18:09.107Z,99453.22
2022-08-20T20:21:17.235Z,99461.25
2022-08-20T20:24:26.114Z,99466.41
2022-08-20T20:27:32.864Z,99474.03
2022-08-20T20:30:40.126Z,99465.94
2022-08-20T20:33:45.057Z,99470.22
2022-08-20T20:36:49.999Z,99453.97
2022-08-20T20:40:05.500Z,99479.88
2022-08-20T20:43:11.875Z,99487.53
2022-08-20T20:46:26.478Z,99485.22
2022-08-20T20:49:49.404Z,99488.00
2022-08-20T20:52:58.319Z,99487.13
2022-08-20T20:56:03.522Z,99493.16
2022-08-20T20:59:10.664Z,99507.28
2022-08-20T21:02:15.991Z,99510.44
2022-08-20T21:05:21.200Z,99515.03
2022-08-20T21:08:25.861Z,99501.91
2022-08-20T21:11:30.754Z,99502.16
2022-08-20T21:14:36.345Z,99498.09
2022-08-20T21:17:41.222Z,99498.84
2022-08-20T21:20:45.771Z,99526.34
2022-08-20T21:23:50.584Z,99521.19
2022-08-20T21:26:56.164Z,99513.13
2022-08-20T21:30:00.524Z,99531.19
2022-08-20T21:33:06.422Z,99535.00
2022-08-20T21:36:11.111Z,99522.72
2022-08-20T21:39:16.224Z,99515.41
2022-08-20T21:42:29.447Z,99526.22
2022-08-20T21:45:35.558Z,99554.53
2022-08-20T21:48:41.748Z,99504.38
2022-08-20T21:51:49.640Z,99550.16
2022-08-20T21:54:54.252Z,99531.22
2022-08-20T21:57:59.552Z,99553.41
2022-08-20T22:01:06.666Z,99555.53
2022-08-20T22:04:11.803Z,99555.69
2022-08-20T22:07:17.631Z,99551.88
2022-08-20T22:10:22.835Z,99564.03
2022-08-20T22:13:33.248Z,99569.50
2022-08-20T22:16:42.324Z,99510.00
2022-08-20T22:19:50.041Z,99528.00
2022-08-20T22:22:54.790Z,99559.69
2022-08-20T22:25:59.467Z,99561.78
2022-08-20T22:29:06.179Z,99559.66
2022-08-20T22:32:11.035Z,99538.72
2022-08-20T22:35:16.099Z,99547.66
2022-08-20T22:38:21.375Z,99546.09
2022-08-20T22:41:25.593Z,99571.84
2022-08-20T22:44:30.454Z,99591.59
2022-08-20T22:47:36.149Z,99563.06
2022-08-20T22:50:41.262Z,99578.38
2022-08-20T22:53:46.464Z,99569.38
2022-08-20T22:56:51.976Z,99582.09
2022-08-20T22:59:57.537Z,99574.69
2022-08-20T23:03:04.518Z,99580.78
2022-08-20T23:06:10.477Z,99578.19
2022-08-20T23:09:15.338Z,99579.94
2022-08-20T23:12:25.633Z,99580.53
2022-08-20T23:15:32.554Z,99593.88
2022-08-20T23:18:37.256Z,99591.44
2022-08-20T23:21:41.895Z,99570.91
2022-08-20T23:24:47.239Z,99564.28
2022-08-20T23:27:55.282Z,99568.84
2022-08-20T23:31:00.292Z,99565.88
2022-08-20T23:34:04.952Z,99555.44
2022-08-20T23:37:10.141Z,99563.56
2022-08-20T23:40:15.540Z,99584.28
2022-08-20T23:43:20.061Z,99574.19
2022-08-20T23:46:28.903Z,99574.63
2022-08-20T23:49:34.073Z,99596.00
2022-08-20T23:52:38.123Z,99608.53
2022-08-20T23:55:42.646Z,99597.69
2022-08-20T23:58:47.277Z,99599.38
